Time;durP1;ratioP1;P1;durP2;ratioP2;P2;SDS_P1;SDS_P2;PMS_P1;PMS_P2;Temp;Humidity;BMP_temperature;BMP_pressure;BME280_temperature;BME280_humidity;BME280_pressure;Samples;Min_cycle;Max_cycle;Signal;HPM_P1;HPM_P2
2021/12/08 00:03:48;;;;;;;11.60;4.10;;;;;;;1.23;90.96;99633.09;15291542;19;20479;-60
2021/12/08 00:09:03;;;;;;;9.65;3.80;;;;;;;1.30;89.54;99616.13;15289304;19;20023;-59
2021/12/08 00:14:05;;;;;;;6.20;3.00;;;;;;;1.36;89.23;99594.84;15283839;19;20022;-59
2021/12/08 00:19:06;;;;;;;7.18;3.35;;;;;;;1.37;89.42;99584.59;15282936;19;20048;-60
2021/12/08 00:24:14;;;;;;;10.65;3.25;;;;;;;1.34;89.89;99583.63;15286339;19;20014;-60
2021/12/08 00:29:15;;;;;;;6.47;2.67;;;;;;;1.35;89.38;99569.88;15291340;19;20022;-58
2021/12/08 00:34:17;;;;;;;7.45;3.22;;;;;;;1.40;88.85;99547.72;15290600;19;20041;-60
2021/12/08 00:39:19;;;;;;;10.25;3.63;;;;;;;1.48;88.10;99551.41;15291727;19;20014;-59
2021/12/08 00:44:20;;;;;;;10.40;2.90;;;;;;;1.53;87.67;99551.56;15286267;19;20027;-59
2021/12/08 00:49:23;;;;;;;6.55;2.53;;;;;;;1.53;88.34;99541.25;15287743;19;20087;-60
2021/12/08 00:54:25;;;;;;;7.47;2.78;;;;;;;1.60;87.29;99530.31;15286927;19;20027;-60
2021/12/08 00:59:27;;;;;;;5.45;2.50;;;;;;;1.63;87.04;99538.16;15289483;19;20011;-60
2021/12/08 01:04:37;;;;;;;11.43;2.30;;;;;;;1.58;87.99;99525.09;15288485;19;20018;-60
2021/12/08 01:09:39;;;;;;;8.07;2.55;;;;;;;1.44;88.87;99504.81;15288866;19;20015;-59
2021/12/08 01:14:41;;;;;;;11.30;2.70;;;;;;;1.33;89.52;99518.22;15285676;19;20010;-59
2021/12/08 01:19:43;;;;;;;7.47;2.67;;;;;;;1.24;89.71;99516.22;15287760;19;20032;-60
2021/12/08 01:24:45;;;;;;;8.38;2.38;;;;;;;1.20;90.58;99503.16;15285403;19;20015;-59
2021/12/08 01:29:48;;;;;;;5.22;2.28;;;;;;;1.14;91.53;99495.22;15288367;19;20018;-59
2021/12/08 01:34:52;;;;;;;8.13;2.50;;;;;;;1.09;92.05;99487.34;15284075;19;20014;-59
2021/12/08 01:39:54;;;;;;;9.68;2.85;;;;;;;1.04;92.59;99470.84;15287129;19;20479;-59
2021/12/08 01:50:16;;;;;;;5.57;2.10;;;;;;;0.70;95.21;99467.09;15180754;19;2004219;-57
2021/12/08 01:55:17;;;;;;;8.88;2.75;;;;;;;0.45;96.28;99466.22;15283242;19;20023;-60
2021/12/08 02:00:29;;;;;;;10.00;2.58;;;;;;;0.26;97.43;99445.75;15290964;19;20018;-59
2021/12/08 02:05:31;;;;;;;12.75;3.40;;;;;;;0.29;98.01;99445.88;15302199;19;20029;-59
2021/12/08 02:10:33;;;;;;;6.45;2.38;;;;;;;0.27;98.52;99435.53;15301365;19;20035;-59
2021/12/08 02:15:37;;;;;;;7.15;2.63;;;;;;;0.25;99.05;99436.28;15301120;19;20027;-58
2021/12/08 02:20:41;;;;;;;11.95;2.78;;;;;;;0.24;99.44;99435.41;15298037;19;20106;-58
2021/12/08 02:25:45;;;;;;;4.03;1.90;;;;;;;0.21;99.88;99425.00;15299543;19;20014;-58
2021/12/08 02:30:56;;;;;;;8.00;2.70;;;;;;;0.20;100.00;99425.81;15297629;19;20014;-58
2021/12/08 02:52:04;;;;;;;7.15;2.80;;;;;;;-0.02;100.00;99398.41;15296981;19;20014;-59
2021/12/08 02:57:07;;;;;;;12.80;3.65;;;;;;;-0.09;100.00;99393.81;15297612;19;20570;-59
2021/12/08 03:02:09;;;;;;;6.15;2.65;;;;;;;-0.11;100.00;99395.47;15296009;19;20017;-59
2021/12/08 03:07:11;;;;;;;6.13;2.60;;;;;;;-0.13;100.00;99397.13;15297604;19;20019;-59
2021/12/08 03:12:27;;;;;;;8.18;3.15;;;;;;;-0.14;100.00;99385.94;15292946;19;20018;-59
2021/12/08 03:17:29;;;;;;;6.63;2.88;;;;;;;-0.08;100.00;99375.00;15297029;19;20579;-59
2021/12/08 03:22:31;;;;;;;9.45;3.42;;;;;;;-0.05;100.00;99387.97;15293700;19;20010;-58
2021/12/08 03:27:43;;;;;;;5.13;2.55;;;;;;;-0.06;100.00;99399.09;15292235;19;20479;-58
2021/12/08 03:32:45;;;;;;;6.40;2.60;;;;;;;0.00;100.00;99396.78;15293955;19;20363;-58
2021/12/08 03:37:48;;;;;;;5.00;2.45;;;;;;;0.01;100.00;99387.34;15295476;19;20035;-58
2021/12/08 03:42:53;;;;;;;15.65;3.08;;;;;;;0.01;100.00;99395.06;15291376;19;20014;-59
2021/12/08 03:48:02;;;;;;;8.75;2.70;;;;;;;0.01;100.00;99410.50;15291851;19;20022;-59
2021/12/08 03:53:06;;;;;;;6.22;2.20;;;;;;;0.02;100.00;99402.84;15292389;19;20022;-59
2021/12/08 03:58:14;;;;;;;6.10;2.72;;;;;;;0.03;100.00;99412.31;15294032;19;20015;-58
2021/12/08 04:03:17;;;;;;;5.95;2.90;;;;;;;0.11;100.00;99407.47;15293077;19;20022;-59
2021/12/08 04:08:30;;;;;;;6.80;2.88;;;;;;;0.11;100.00;99408.31;15293101;19;20010;-59
2021/12/08 04:13:48;;;;;;;12.45;2.58;;;;;;;0.23;100.00;99409.59;15288618;19;20337;-60
2021/12/08 04:18:50;;;;;;;5.97;2.40;;;;;;;0.26;100.00;99394.28;15292505;19;20028;-59
2021/12/08 04:23:52;;;;;;;7.00;2.78;;;;;;;0.29;100.00;99407.25;15288124;19;20018;-59
2021/12/08 04:28:55;;;;;;;7.82;3.13;;;;;;;0.42;100.00;99400.81;15291978;19;20017;-60
2021/12/08 04:34:01;;;;;;;6.78;2.40;;;;;;;0.47;100.00;99405.31;15287787;19;20035;-59
2021/12/08 04:39:11;;;;;;;5.82;2.35;;;;;;;0.63;100.00;99408.44;15292115;19;20049;-59
2021/12/08 04:44:40;;;;;;;4.68;2.28;;;;;;;0.72;100.00;99421.63;15290113;19;20031;-59
2021/12/08 05:11:18;;;;;;;5.63;2.30;;;;;;;1.19;100.00;99409.47;15288418;19;20500;-59
2021/12/08 05:16:23;;;;;;;6.00;2.40;;;;;;;1.25;100.00;99416.53;15290141;19;20499;-57
2021/12/08 05:21:33;;;;;;;5.25;2.38;;;;;;;1.26;100.00;99412.25;15287957;19;20022;-59
2021/12/08 05:26:42;;;;;;;4.38;2.10;;;;;;;1.33;100.00;99417.66;15288773;19;20015;-59
2021/12/08 05:31:44;;;;;;;4.80;2.13;;;;;;;1.34;100.00;99428.84;15287637;19;20018;-59
2021/12/08 05:36:46;;;;;;;5.22;2.42;;;;;;;1.36;100.00;99429.78;15303274;19;20577;-60
2021/12/08 05:41:52;;;;;;;4.78;1.98;;;;;;;1.39;100.00;99432.44;15302727;19;20014;-59
2021/12/08 05:46:59;;;;;;;9.60;2.40;;;;;;;1.46;100.00;99439.56;15301266;19;20078;-59
2021/12/08 05:52:02;;;;;;;6.28;2.28;;;;;;;1.49;100.00;99449.13;15300101;19;20014;-59
2021/12/08 05:57:14;;;;;;;7.38;2.40;;;;;;;1.54;100.00;99451.00;15301876;19;20014;-59
2021/12/08 06:02:23;;;;;;;6.40;1.88;;;;;;;1.56;100.00;99448.44;15298065;19;20078;-59
2021/12/08 06:07:27;;;;;;;6.22;2.50;;;;;;;1.57;100.00;99445.91;15300765;19;20018;-60
2021/12/08 06:12:29;;;;;;;7.20;2.78;;;;;;;1.65;100.00;99445.28;15297955;19;20015;-59
2021/12/08 06:17:31;;;;;;;4.95;2.10;;;;;;;1.62;100.00;99463.25;15299687;19;20015;-59
2021/12/08 06:22:33;;;;;;;9.63;2.70;;;;;;;1.67;100.00;99466.88;15298823;19;20961;-59
2021/12/08 06:27:35;;;;;;;4.85;2.38;;;;;;;1.73;99.86;99473.09;15299543;19;20501;-59
2021/12/08 06:32:37;;;;;;;5.00;2.10;;;;;;;1.74;99.86;99476.53;15298926;19;20027;-58
2021/12/08 06:37:42;;;;;;;4.55;2.10;;;;;;;1.75;100.00;99475.72;15299638;19;20039;-59
2021/12/08 06:42:47;;;;;;;7.65;2.28;;;;;;;1.79;100.00;99487.91;15295044;19;20044;-60
2021/12/08 06:47:51;;;;;;;5.32;1.77;;;;;;;1.81;99.61;99470.75;15296272;19;20028;-60
2021/12/08 06:52:56;;;;;;;7.43;2.28;;;;;;;1.85;99.13;99475.19;15296365;19;20834;-59
2021/12/08 06:58:05;;;;;;;5.18;2.13;;;;;;;1.76;99.13;99478.34;15297934;19;20812;-60
2021/12/08 07:03:34;;;;;;;6.47;2.40;;;;;;;1.75;99.49;99486.06;15295326;19;20022;-59
2021/12/08 07:08:30;;;;;;;6.88;2.70;;;;;;;1.83;99.05;99473.38;15297956;19;20565;-61
2021/12/08 07:13:34;;;;;;;6.10;2.05;;;;;;;1.84;99.26;99476.00;15293418;19;20130;-60
2021/12/08 07:19:28;;;;;;;3.80;2.05;;;;;;;1.89;99.15;99479.63;15287798;19;20003;-59
2021/12/08 07:24:34;;;;;;;3.15;1.60;;;;;;;1.91;99.46;99506.34;15288756;19;20014;-60
2021/12/08 07:29:39;;;;;;;6.78;2.40;;;;;;;1.89;99.29;99527.78;15291829;19;20014;-60
2021/12/08 07:34:41;;;;;;;4.90;2.30;;;;;;;1.89;99.48;99520.94;15288595;19;20031;-60
2021/12/08 07:39:47;;;;;;;4.10;1.73;;;;;;;1.94;99.29;99532.28;15292315;19;20022;-60
2021/12/08 07:44:54;;;;;;;4.13;2.22;;;;;;;2.03;99.12;99525.66;15291850;19;20027;-59
2021/12/08 07:50:20;;;;;;;4.63;2.00;;;;;;;2.10;98.53;99533.63;15289480;19;20007;-60
2021/12/08 07:55:34;;;;;;;7.18;2.08;;;;;;;2.08;98.70;99531.81;15183224;19;2004346;-60
2021/12/08 08:00:48;;;;;;;4.38;1.83;;;;;;;2.12;99.08;99529.38;15291616;19;20015;-60
2021/12/08 08:05:53;;;;;;;4.20;1.80;;;;;;;2.21;98.81;99548.59;15284200;19;20393;-60
2021/12/08 08:11:02;;;;;;;4.90;2.25;;;;;;;2.35;98.42;99541.25;15292642;19;20074;-60
2021/12/08 08:16:55;;;;;;;4.00;1.88;;;;;;;2.38;98.58;99546.50;15279834;19;20101;-60
2021/12/08 08:22:34;;;;;;;4.60;2.17;;;;;;;2.45;98.36;99553.63;15279147;19;20047;-60
2021/12/08 08:27:37;;;;;;;5.13;2.03;;;;;;;2.54;97.72;99568.50;15285712;19;20405;-60
2021/12/08 08:32:40;;;;;;;7.63;1.90;;;;;;;2.52;97.98;99571.03;15291002;19;20014;-60
2021/12/08 08:37:43;;;;;;;6.25;1.95;;;;;;;2.64;97.52;99581.75;15292181;19;20017;-58
2021/12/08 08:42:47;;;;;;;7.63;2.05;;;;;;;2.64;97.73;99581.75;15291002;19;20014;-60
2021/12/08 08:47:57;;;;;;;4.80;2.03;;;;;;;2.66;97.76;99599.91;15291479;19;20038;-60
2021/12/08 08:53:00;;;;;;;4.15;2.00;;;;;;;2.70;97.47;99593.09;15280969;19;20112;-60
2021/12/08 08:58:20;;;;;;;5.15;2.28;;;;;;;2.73;96.99;99606.13;15289002;19;20014;-59
2021/12/08 09:03:25;;;;;;;5.65;2.10;;;;;;;2.74;97.42;99602.72;15281225;19;20014;-59
2021/12/08 09:08:30;;;;;;;4.40;2.08;;;;;;;2.80;96.25;99593.41;15279084;19;20078;-60
2021/12/08 09:13:38;;;;;;;9.32;2.70;;;;;;;2.81;96.64;99594.31;15280706;19;20482;-59
2021/12/08 09:18:53;;;;;;;5.28;2.20;;;;;;;2.87;95.82;99610.00;15287578;19;20020;-60
2021/12/08 09:24:13;;;;;;;6.95;2.00;;;;;;;2.93;95.71;99615.34;15279807;19;20046;-59
2021/12/08 09:29:19;;;;;;;8.38;2.38;;;;;;;3.00;95.35;99619.88;15280753;19;20015;-60
2021/12/08 09:34:25;;;;;;;5.78;2.10;;;;;;;3.06;95.21;99618.28;15278490;19;20014;-59
2021/12/08 09:39:34;;;;;;;4.30;2.10;;;;;;;3.10;94.74;99635.66;15279458;19;20011;-59
2021/12/08 09:44:41;;;;;;;7.78;2.60;;;;;;;3.05;95.07;99634.63;15276882;19;20006;-60
2021/12/08 09:49:47;;;;;;;6.50;2.10;;;;;;;3.11;94.55;99647.75;15281432;19;20018;-59
2021/12/08 09:54:50;;;;;;;9.18;2.90;;;;;;;3.09;94.86;99657.16;15278895;19;20019;-59
2021/12/08 09:59:52;;;;;;;7.32;2.03;;;;;;;3.15;94.80;99654.75;15287586;19;20122;-60
2021/12/08 10:05:06;;;;;;;5.60;1.95;;;;;;;3.16;94.58;99659.09;15283292;19;20017;-60
2021/12/08 10:10:12;;;;;;;6.30;2.17;;;;;;;-147.53;100.00;57128.34;15286741;19;20388;-60
2021/12/08 10:15:17;;;;;;;4.45;2.30;;;;;;;-147.53;100.00;57128.34;15281115;19;20019;-59
2021/12/08 10:20:30;;;;;;;5.95;2.45;;;;;;;-147.53;100.00;57128.34;15290089;19;20025;-59
2021/12/08 10:25:35;;;;;;;7.28;2.50;;;;;;;-147.53;100.00;57128.34;15297163;19;20049;-60
2021/12/08 10:30:54;;;;;;;6.35;2.75;;;;;;;-147.53;100.00;57128.34;15294664;19;20348;-58
2021/12/08 10:36:03;;;;;;;11.52;3.80;;;;;;;-147.53;100.00;57128.34;15292867;19;20409;-60
2021/12/08 10:41:07;;;;;;;7.05;2.85;;;;;;;-147.53;100.00;57128.34;15296690;19;20693;-59
2021/12/08 10:46:11;;;;;;;5.70;2.40;;;;;;;-147.53;100.00;57128.34;15287368;19;20025;-59
2021/12/08 10:56:43;;;;;;;5.77;2.77;;;;;;;-147.53;100.00;57128.34;15294013;19;20050;-60
2021/12/08 11:01:45;;;;;;;6.93;2.35;;;;;;;-147.53;100.00;57128.34;15291827;19;21228;-60
2021/12/08 11:06:47;;;;;;;7.32;2.92;;;;;;;-147.53;100.00;57128.34;15286614;19;20478;-60
2021/12/08 11:11:49;;;;;;;5.82;2.50;;;;;;;3.21;94.79;99647.16;15287332;19;20022;-61
2021/12/08 11:16:50;;;;;;;8.13;3.22;;;;;;;4.52;89.63;99613.34;15295250;19;20474;-60
2021/12/08 11:21:56;;;;;;;7.50;2.30;;;;;;;4.59;89.51;99634.31;15294845;19;20021;-59
2021/12/08 11:27:01;;;;;;;10.27;2.90;;;;;;;4.51;89.92;99634.97;15295168;19;20015;-59
2021/12/08 11:32:05;;;;;;;7.72;2.72;;;;;;;4.34;90.71;99624.16;15291564;19;20032;-60
2021/12/08 11:37:14;;;;;;;7.90;3.00;;;;;;;4.42;90.91;99631.28;15290221;19;20034;-60
2021/12/08 11:42:22;;;;;;;8.90;3.05;;;;;;;4.42;89.52;99631.28;15293978;19;20022;-59
2021/12/08 11:47:32;;;;;;;10.88;4.03;;;;;;;4.36;89.87;99649.28;15293685;19;20014;-59
2021/12/08 11:52:34;;;;;;;9.77;3.13;;;;;;;4.35;90.21;99668.28;15294019;19;20014;-60
2021/12/08 11:57:42;;;;;;;12.07;3.10;;;;;;;4.30;90.15;99672.47;15293834;19;20460;-59
2021/12/08 12:02:56;;;;;;;11.80;3.40;;;;;;;4.28;90.20;99660.31;15292653;19;20014;-60
2021/12/08 12:08:07;;;;;;;9.35;3.40;;;;;;;4.25;90.21;99658.53;15287756;19;20021;-59
2021/12/08 12:13:10;;;;;;;9.25;3.00;;;;;;;4.21;91.25;99677.44;15290626;19;20359;-59
2021/12/08 12:18:12;;;;;;;8.63;3.17;;;;;;;4.27;90.76;99671.53;15290618;19;20010;-60
2021/12/08 12:23:36;;;;;;;8.27;3.25;;;;;;;4.27;90.91;99671.53;15291713;19;20075;-60
2021/12/08 12:28:57;;;;;;;6.72;2.63;;;;;;;4.17;90.89;99685.97;15291865;19;20018;-59
2021/12/08 12:33:58;;;;;;;5.90;2.75;;;;;;;4.18;90.60;99688.59;15290779;19;20103;-59
2021/12/08 12:39:13;;;;;;;6.75;2.97;;;;;;;4.23;90.78;99693.88;15289358;19;20011;-59
2021/12/08 12:44:23;;;;;;;8.07;2.83;;;;;;;4.25;90.59;99700.00;15286020;19;20017;-60
2021/12/08 12:49:25;;;;;;;7.32;2.90;;;;;;;4.25;90.24;99707.78;15290281;19;20022;-60
2021/12/08 12:54:27;;;;;;;6.80;3.15;;;;;;;4.24;90.34;99708.59;15286776;19;20035;-60
2021/12/08 12:59:50;;;;;;;8.35;3.05;;;;;;;4.24;90.37;99693.94;15291453;19;20030;-59
2021/12/08 13:04:58;;;;;;;7.93;2.53;;;;;;;4.27;91.11;99685.38;15287166;19;20121;-59
2021/12/08 13:10:12;;;;;;;8.93;3.10;;;;;;;4.31;90.45;99683.72;15284393;19;20038;-60
2021/12/08 13:15:20;;;;;;;8.27;3.08;;;;;;;4.24;90.11;99693.94;15180004;19;2004629;-61
2021/12/08 13:20:26;;;;;;;7.30;2.90;;;;;;;4.25;90.25;99697.41;15284290;19;20375;-60
2021/12/08 13:25:47;;;;;;;7.90;3.10;;;;;;;4.27;89.59;99708.69;15286599;19;20443;-60
2021/12/08 13:30:56;;;;;;;13.85;3.80;;;;;;;4.25;89.85;99713.84;15290702;19;20035;-60
2021/12/08 13:36:02;;;;;;;7.88;2.85;;;;;;;4.23;89.84;99704.25;15288557;19;20011;-59
2021/12/08 13:41:13;;;;;;;9.55;3.55;;;;;;;4.26;90.14;99712.09;15286875;19;20018;-60
2021/12/08 13:46:37;;;;;;;7.13;3.00;;;;;;;4.21;90.19;99717.16;15285479;19;20368;-60
2021/12/08 13:51:39;;;;;;;5.65;2.60;;;;;;;4.23;89.33;99714.63;15285344;19;20035;-60
2021/12/08 13:56:42;;;;;;;9.98;2.92;;;;;;;4.18;89.78;99714.50;15296080;19;20014;-59
2021/12/08 14:01:44;;;;;;;12.07;3.17;;;;;;;4.18;89.59;99724.88;15302090;19;20031;-59
2021/12/08 14:06:46;;;;;;;10.63;3.30;;;;;;;4.08;90.10;99733.22;15298917;19;20554;-60
2021/12/08 14:11:50;;;;;;;8.23;3.03;;;;;;;4.08;90.46;99733.22;15300620;19;20015;-60
2021/12/08 14:16:52;;;;;;;8.45;3.33;;;;;;;3.98;90.38;99737.31;15302582;19;20014;-59
2021/12/08 14:21:59;;;;;;;8.65;2.85;;;;;;;3.95;90.56;99736.34;15298811;19;20014;-60
2021/12/08 14:27:02;;;;;;;9.32;3.05;;;;;;;3.93;90.71;99735.44;15300572;19;20011;-60
2021/12/08 14:32:04;;;;;;;6.43;2.42;;;;;;;3.82;90.96;99737.72;15296440;19;20018;-61
2021/12/08 14:37:10;;;;;;;9.18;3.10;;;;;;;3.77;91.42;99736.72;15297987;19;20010;-61
2021/12/08 14:42:24;;;;;;;9.13;2.58;;;;;;;3.68;91.80;99746.00;15292749;19;20014;-60
2021/12/08 14:47:32;;;;;;;6.78;2.70;;;;;;;3.53;92.12;99751.59;15295131;19;20022;-60
2021/12/08 14:52:39;;;;;;;6.35;2.50;;;;;;;3.46;92.64;99757.44;15297410;19;20007;-59
2021/12/08 14:57:42;;;;;;;11.88;3.40;;;;;;;3.44;92.69;99763.38;15298539;19;20033;-59
2021/12/08 15:02:45;;;;;;;6.93;2.88;;;;;;;3.24;93.58;99774.03;15298423;19;20018;-57
2021/12/08 15:07:49;;;;;;;7.78;3.08;;;;;;;3.12;93.87;99773.66;15297272;19;20011;-60
2021/12/08 15:12:50;;;;;;;7.25;3.15;;;;;;;3.10;93.88;99778.78;15296288;19;20025;-58
2021/12/08 15:18:10;;;;;;;7.30;2.92;;;;;;;3.03;93.78;99783.72;15297389;19;20010;-59
2021/12/08 15:23:16;;;;;;;9.73;3.40;;;;;;;2.97;93.64;99782.72;15294316;19;20022;-59
2021/12/08 15:28:23;;;;;;;13.25;3.90;;;;;;;-147.53;100.00;57128.34;15298190;19;20294;-59
2021/12/08 15:33:26;;;;;;;11.15;4.28;;;;;;;-147.53;100.00;57128.34;15289627;19;20019;-61
2021/12/08 15:38:29;;;;;;;16.65;5.03;;;;;;;-147.53;100.00;57128.34;15289582;19;20387;-61
2021/12/08 15:43:32;;;;;;;13.73;5.35;;;;;;;2.54;95.08;99804.56;15290827;19;20023;-61
2021/12/08 15:48:36;;;;;;;12.38;5.20;;;;;;;2.51;95.14;99821.66;15294522;19;20042;-61
2021/12/08 15:53:42;;;;;;;12.20;4.97;;;;;;;2.41;95.54;99818.75;15293010;19;20018;-60
2021/12/08 15:58:45;;;;;;;11.68;5.35;;;;;;;2.40;96.21;99827.38;15295373;19;20021;-59
2021/12/08 16:03:49;;;;;;;8.68;3.20;;;;;;;2.44;96.38;99828.34;15291033;19;20321;-60
2021/12/08 16:08:54;;;;;;;14.07;4.43;;;;;;;2.45;96.40;99824.94;15293477;19;20045;-60
2021/12/08 16:14:32;;;;;;;13.25;3.47;;;;;;;2.49;96.32;99834.53;15293195;19;20018;-59
2021/12/08 16:19:39;;;;;;;7.30;3.17;;;;;;;2.45;96.30;99833.56;15286448;19;20134;-60
2021/12/08 16:24:43;;;;;;;8.27;3.55;;;;;;;2.46;100.00;57128.34;15290152;19;20006;-60
2021/12/08 16:29:47;;;;;;;11.07;4.05;;;;;;;-147.53;100.00;57128.34;15290172;19;20363;-60
2021/12/08 16:34:54;;;;;;;13.40;4.78;;;;;;;-147.53;100.00;57128.34;15288383;19;20011;-59
2021/12/08 16:39:59;;;;;;;10.60;3.95;;;;;;;-147.53;100.00;57128.34;15292885;19;20719;-59
2021/12/08 16:45:01;;;;;;;12.30;4.38;;;;;;;-147.53;100.00;57128.34;15288341;19;20031;-60
2021/12/08 16:50:07;;;;;;;7.60;3.28;;;;;;;-147.53;100.00;57128.34;15290990;19;20018;-59
2021/12/08 16:55:10;;;;;;;10.55;3.90;;;;;;;-147.53;100.00;57128.34;15288480;19;20033;-60
2021/12/08 17:00:23;;;;;;;8.88;3.25;;;;;;;-147.53;100.00;57128.34;15290284;19;20090;-58
2021/12/08 17:05:27;;;;;;;8.25;3.25;;;;;;;-147.53;100.00;57128.34;15287759;19;20019;-60
2021/12/08 17:10:29;;;;;;;19.35;3.60;;;;;;;-147.53;100.00;57128.34;15290725;19;20041;-60
2021/12/08 17:15:31;;;;;;;7.43;3.33;;;;;;;-147.53;100.00;57128.34;15290641;19;20037;-60
2021/12/08 17:20:38;;;;;;;8.00;3.20;;;;;;;-147.53;100.00;57128.34;15289917;19;20014;-60
2021/12/08 17:25:40;;;;;;;8.73;3.50;;;;;;;-147.53;100.00;57128.34;15290367;19;20034;-60
2021/12/08 17:30:42;;;;;;;9.52;4.05;;;;;;;-147.53;100.00;57128.34;15294493;19;20016;-60
2021/12/08 17:35:44;;;;;;;10.45;4.53;;;;;;;-147.53;100.00;57128.34;15302868;19;20416;-58
2021/12/08 17:40:46;;;;;;;16.70;5.95;;;;;;;-147.53;100.00;57128.34;15302793;19;20015;-60
2021/12/08 17:45:48;;;;;;;14.75;6.03;;;;;;;-147.53;100.00;57128.34;15300120;19;20014;-59
2021/12/08 17:50:50;;;;;;;13.05;4.80;;;;;;;-147.53;100.00;57128.34;15297490;19;20011;-60
2021/12/08 17:55:52;;;;;;;14.60;5.22;;;;;;;-147.53;100.00;57128.34;15303203;19;20015;-60
2021/12/08 18:00:54;;;;;;;13.10;6.07;;;;;;;-147.53;100.00;57128.34;15302309;19;20015;-60
2021/12/08 18:05:56;;;;;;;23.40;9.32;;;;;;;-147.53;100.00;57128.34;15300078;19;20025;-60
2021/12/08 18:10:59;;;;;;;17.70;8.05;;;;;;;-147.53;100.00;57128.34;15301653;19;20581;-60
2021/12/08 18:16:00;;;;;;;24.70;10.18;;;;;;;-147.53;100.00;57128.34;15303672;19;20011;-60
2021/12/08 18:21:03;;;;;;;16.45;6.78;;;;;;;-147.53;100.00;57128.34;15297672;19;20463;-60
2021/12/08 18:26:06;;;;;;;15.05;6.97;;;;;;;-147.53;100.00;57128.34;15294237;19;20404;-60
2021/12/08 18:31:08;;;;;;;16.70;7.55;;;;;;;-147.53;100.00;57128.34;15293564;19;20029;-60
2021/12/08 18:36:24;;;;;;;16.85;6.38;;;;;;;-147.53;100.00;57128.34;15297797;19;20022;-60
2021/12/08 18:41:27;;;;;;;18.98;7.63;;;;;;;2.44;96.52;99829.22;15291118;19;20015;-60
2021/12/08 18:46:30;;;;;;;10.82;5.13;;;;;;;1.29;98.86;99929.06;15294359;19;20474;-60
2021/12/08 18:51:34;;;;;;;12.25;4.55;;;;;;;1.19;99.12;99945.84;15297118;19;20027;-60
2021/12/08 18:56:36;;;;;;;15.95;6.43;;;;;;;1.12;99.03;99950.69;15299435;19;20022;-60
2021/12/08 19:01:39;;;;;;;12.63;5.47;;;;;;;1.10;99.21;99955.78;15297888;19;20039;-60
2021/12/08 19:06:41;;;;;;;14.63;7.45;;;;;;;1.05;99.08;99957.28;15295566;19;20078;-60
2021/12/08 19:11:43;;;;;;;27.95;11.07;;;;;;;1.01;99.16;99953.69;15297047;19;20014;-60
2021/12/08 19:16:44;;;;;;;19.02;10.38;;;;;;;0.99;99.20;99957.91;15297644;19;20031;-59
2021/12/08 19:21:46;;;;;;;15.77;8.43;;;;;;;0.95;99.37;99970.63;15295669;19;20098;-59
2021/12/08 19:26:48;;;;;;;15.80;8.43;;;;;;;0.83;99.26;99958.94;15294850;19;20018;-60
2021/12/08 19:31:50;;;;;;;17.15;8.07;;;;;;;0.80;99.29;99969.13;15294362;19;20067;-59
2021/12/08 19:36:52;;;;;;;20.20;9.75;;;;;;;0.68;99.45;99977.22;15295608;19;20441;-60
2021/12/08 19:41:53;;;;;;;21.35;9.05;;;;;;;0.61;99.82;99988.06;15294799;19;20499;-60
2021/12/08 19:46:57;;;;;;;19.50;8.95;;;;;;;0.57;100.00;99987.84;15293785;19;20018;-60
2021/12/08 19:51:59;;;;;;;16.90;7.25;;;;;;;0.52;100.00;99993.69;15293926;19;20014;-60
2021/12/08 19:57:01;;;;;;;12.32;7.68;;;;;;;0.46;100.00;100003.72;15296330;19;20123;-58
2021/12/08 20:02:03;;;;;;;23.05;11.40;;;;;;;0.36;100.00;100011.81;15292323;19;20011;-57
2021/12/08 20:07:06;;;;;;;17.70;7.40;;;;;;;0.27;100.00;100017.47;15289157;19;20018;-59
2021/12/08 20:12:08;;;;;;;24.77;9.90;;;;;;;0.21;100.00;100031.72;15291734;19;20022;-60
2021/12/08 20:17:10;;;;;;;33.13;14.02;;;;;;;0.15;100.00;100027.16;15295022;19;20026;-58
2021/12/08 20:22:12;;;;;;;13.50;6.50;;;;;;;0.12;100.00;100039.91;15293199;19;20093;-60
2021/12/08 20:27:14;;;;;;;27.25;10.25;;;;;;;0.17;100.00;100041.00;15292530;19;20014;-59
2021/12/08 20:32:16;;;;;;;16.63;8.18;;;;;;;0.26;100.00;100032.84;15291906;19;20021;-59
2021/12/08 20:37:18;;;;;;;21.73;9.98;;;;;;;0.30;100.00;100043.34;15265320;19;20017;-59
2021/12/08 20:42:25;;;;;;;16.08;8.23;;;;;;;0.28;100.00;100033.78;15181572;19;20027;-59
2021/12/08 20:47:32;;;;;;;20.98;8.68;;;;;;;0.29;100.00;100035.56;15289073;19;20559;-59
2021/12/08 20:52:34;;;;;;;18.70;8.48;;;;;;;0.25;100.00;100033.66;15290092;19;20010;-59
2021/12/08 20:57:38;;;;;;;20.75;10.40;;;;;;;0.25;100.00;100037.09;15290954;19;20031;-59
2021/12/08 21:02:40;;;;;;;23.77;10.60;;;;;;;0.27;100.00;100038.06;15290111;19;20010;-60
2021/12/08 21:07:43;;;;;;;19.63;9.30;;;;;;;0.31;100.00;100042.53;15286872;19;20030;-59
2021/12/08 21:12:44;;;;;;;21.40;9.27;;;;;;;0.33;100.00;100052.91;15289572;19;20014;-60
2021/12/08 21:17:48;;;;;;;22.67;9.52;;;;;;;0.26;100.00;100066.31;15289668;19;20018;-60
2021/12/08 21:22:53;;;;;;;22.00;11.32;;;;;;;0.23;100.00;100067.06;15288393;19;20039;-60
2021/12/08 21:27:55;;;;;;;21.17;10.52;;;;;;;0.22;100.00;100064.41;15288811;19;20027;-60
2021/12/08 21:32:57;;;;;;;16.63;7.10;;;;;;;0.14;100.00;100072.66;15287853;19;20010;-60
2021/12/08 21:38:05;;;;;;;20.38;9.93;;;;;;;0.14;100.00;100072.66;15289794;19;20029;-58
2021/12/08 21:43:08;;;;;;;32.85;15.40;;;;;;;0.09;100.00;100073.22;15287662;19;20014;-59
2021/12/08 21:48:10;;;;;;;22.45;10.55;;;;;;;0.02;100.00;100086.63;15289581;19;20120;-60
2021/12/08 21:53:12;;;;;;;18.90;10.18;;;;;;;0.02;100.00;100092.66;15286021;19;20698;-60
2021/12/08 21:58:14;;;;;;;26.60;9.98;;;;;;;0.18;100.00;100099.41;15288300;19;20022;-59
2021/12/08 22:03:17;;;;;;;13.65;6.43;;;;;;;0.27;100.00;100106.69;15286617;19;20010;-60
2021/12/08 22:08:21;;;;;;;18.05;6.72;;;;;;;0.25;100.00;100090.28;15287354;19;20024;-60
2021/12/08 22:13:25;;;;;;;16.85;7.20;;;;;;;0.29;100.00;100087.94;15285466;19;20011;-59
2021/12/08 22:18:32;;;;;;;12.73;6.43;;;;;;;0.35;100.00;100087.34;15299850;19;20010;-59
2021/12/08 22:23:34;;;;;;;13.07;6.50;;;;;;;0.30;100.00;100088.81;15299168;19;20501;-59
2021/12/08 22:28:36;;;;;;;17.77;6.97;;;;;;;0.24;100.00;100088.53;15300311;19;20022;-60
2021/12/08 22:33:39;;;;;;;11.93;6.55;;;;;;;0.15;100.00;100092.44;15297516;19;20014;-60
2021/12/08 22:38:42;;;;;;;14.05;5.97;;;;;;;0.17;100.00;100102.81;15300262;19;20039;-60
2021/12/08 22:44:04;;;;;;;17.27;7.05;;;;;;;0.08;100.00;100098.09;15296603;19;20097;-59
2021/12/08 22:49:06;;;;;;;15.70;7.22;;;;;;;0.10;100.00;100101.63;15298722;19;20042;-63
2021/12/08 22:54:09;;;;;;;12.93;6.40;;;;;;;0.11;100.00;100098.25;15295796;19;20425;-60
2021/12/08 22:59:10;;;;;;;15.60;6.50;;;;;;;0.09;100.00;100107.59;15299142;19;20023;-60
2021/12/08 23:04:13;;;;;;;13.65;6.43;;;;;;;0.06;100.00;100103.97;15295631;19;20031;-59
2021/12/08 23:09:15;;;;;;;13.65;5.90;;;;;;;0.04;100.00;100113.31;15299099;19;20018;-60
2021/12/08 23:14:18;;;;;;;12.93;6.78;;;;;;;-0.01;100.00;100108.81;15295931;19;20050;-59
2021/12/08 23:19:23;;;;;;;14.80;7.00;;;;;;;0.03;100.00;100107.31;15297586;19;20027;-60
2021/12/08 23:24:25;;;;;;;18.45;6.70;;;;;;;0.03;100.00;100114.13;15294528;19;20023;-59
2021/12/08 23:29:27;;;;;;;14.88;7.57;;;;;;;-0.04;100.00;100124.13;15293663;19;20022;-60
2021/12/08 23:34:33;;;;;;;11.63;6.13;;;;;;;-0.06;100.00;100124.84;15291192;19;20011;-60
2021/12/08 23:39:36;;;;;;;17.17;6.88;;;;;;;0.01;100.00;100121.78;15295546;19;20022;-60
2021/12/08 23:44:38;;;;;;;13.13;7.25;;;;;;;0.09;100.00;100120.47;15291348;19;20018;-60
2021/12/08 23:49:39;;;;;;;24.42;7.55;;;;;;;0.16;100.00;100116.47;15295850;19;20011;-60
2021/12/08 23:54:41;;;;;;;14.43;7.28;;;;;;;0.13;100.00;100119.78;15293007;19;20027;-60
2021/12/08 23:59:46;;;;;;;13.30;7.07;;;;;;;0.18;100.00;100114.84;15295061;19;20035;-60
